createdAt,value
2018-11-10T00:00:44.541Z,12.00
2018-11-10T00:01:44.450Z,13.20
2018-11-10T00:02:44.410Z,12.40
2018-11-10T00:03:44.400Z,13.20
2018-11-10T00:04:44.335Z,12.60
2018-11-10T00:05:44.290Z,12.90
2018-11-10T00:06:44.252Z,13.00
2018-11-10T00:07:44.218Z,13.10
2018-11-10T00:08:44.187Z,13.10
2018-11-10T00:09:44.134Z,13.30
2018-11-10T00:10:44.090Z,13.30
2018-11-10T00:11:44.043Z,12.80
2018-11-10T00:12:44.002Z,13.30
2018-11-10T00:13:43.994Z,13.80
2018-11-10T00:14:43.917Z,13.50
2018-11-10T00:15:43.882Z,13.50
2018-11-10T00:16:43.909Z,13.60
2018-11-10T00:17:43.804Z,13.60
2018-11-10T00:18:43.765Z,12.90
2018-11-10T00:19:43.739Z,13.50
2018-11-10T00:20:43.673Z,13.70
2018-11-10T00:21:43.629Z,13.30
2018-11-10T00:22:43.589Z,12.30
2018-11-10T00:23:43.559Z,14.00
2018-11-10T00:24:43.543Z,13.30
2018-11-10T00:25:43.498Z,13.00
2018-11-10T00:26:43.426Z,13.70
2018-11-10T00:27:43.394Z,13.60
2018-11-10T00:28:43.355Z,14.20
2018-11-10T00:29:43.314Z,13.60
2018-11-10T00:30:43.302Z,14.10
2018-11-10T00:31:43.224Z,14.70
2018-11-10T00:32:43.186Z,14.30
2018-11-10T00:33:43.144Z,14.80
2018-11-10T00:34:43.109Z,14.00
2018-11-10T00:35:43.067Z,13.90
2018-11-10T00:36:43.052Z,13.30
2018-11-10T00:37:42.985Z,22.90
2018-11-10T00:38:42.952Z,14.10
2018-11-10T00:39:42.894Z,13.80
2018-11-10T00:40:42.883Z,14.30
2018-11-10T00:41:42.829Z,14.30
2018-11-10T00:42:42.805Z,14.30
2018-11-10T00:43:42.739Z,14.50
2018-11-10T00:44:42.693Z,14.00
2018-11-10T00:45:42.677Z,14.70
2018-11-10T00:46:42.622Z,14.60
2018-11-10T00:47:42.576Z,14.50
2018-11-10T00:48:42.536Z,15.70
2018-11-10T00:49:42.522Z,15.20
2018-11-10T00:50:42.454Z,14.90
2018-11-10T00:51:42.411Z,15.00
2018-11-10T00:52:42.390Z,14.80
2018-11-10T00:53:42.329Z,15.50
2018-11-10T00:54:42.319Z,15.00
2018-11-10T00:55:42.252Z,15.60
2018-11-10T00:56:42.214Z,15.40
2018-11-10T00:57:42.191Z,15.40
2018-11-10T00:58:42.124Z,15.10
2018-11-10T00:59:42.120Z,14.70
2018-11-10T01:00:42.050Z,14.90
2018-11-10T01:01:42.040Z,15.60
2018-11-10T01:02:41.990Z,14.60
2018-11-10T01:03:41.922Z,15.20
2018-11-10T01:04:41.882Z,14.50
2018-11-10T01:05:41.839Z,14.70
2018-11-10T01:06:41.802Z,15.20
2018-11-10T01:07:41.800Z,15.20
2018-11-10T01:08:41.725Z,14.70
2018-11-10T01:09:41.687Z,14.90
2018-11-10T01:10:41.645Z,15.10
2018-11-10T01:11:41.612Z,15.30
2018-11-10T01:12:41.579Z,14.80
2018-11-10T01:13:41.530Z,15.00
2018-11-10T01:14:41.483Z,14.30
2018-11-10T01:15:41.434Z,14.30
2018-11-10T01:16:41.399Z,15.00
2018-11-10T01:17:41.376Z,14.30
2018-11-10T01:18:41.342Z,14.60
2018-11-10T01:19:41.282Z,14.80
2018-11-10T01:20:41.240Z,15.60
2018-11-10T01:21:41.199Z,14.80
2018-11-10T01:22:41.158Z,14.90
2018-11-10T01:23:41.112Z,14.80
2018-11-10T01:24:41.098Z,15.40
2018-11-10T01:25:41.031Z,15.30
2018-11-10T01:26:40.990Z,15.60
2018-11-10T01:27:41.000Z,15.40
2018-11-10T01:28:40.938Z,14.70
2018-11-10T01:29:40.872Z,14.90
2018-11-10T01:30:40.848Z,15.70
2018-11-10T01:31:40.796Z,15.60
2018-11-10T01:32:40.755Z,15.90
2018-11-10T01:33:40.720Z,16.20
2018-11-10T01:34:40.675Z,15.90
2018-11-10T01:35:40.668Z,16.10
2018-11-10T01:36:40.584Z,16.00
2018-11-10T01:37:40.569Z,15.40
2018-11-10T01:38:40.506Z,15.40
2018-11-10T01:39:40.475Z,16.60
2018-11-10T01:40:40.439Z,15.20
2018-11-10T01:41:40.388Z,15.90
2018-11-10T01:42:40.375Z,15.50
2018-11-10T01:43:40.299Z,15.90
2018-11-10T01:44:40.261Z,15.60
2018-11-10T01:45:40.231Z,14.90
2018-11-10T01:46:40.183Z,16.30
2018-11-10T01:47:40.143Z,15.80
2018-11-10T01:48:40.122Z,16.20
2018-11-10T01:49:40.061Z,16.40
2018-11-10T01:50:40.021Z,15.60
2018-11-10T01:51:39.984Z,15.90
2018-11-10T01:52:50.266Z,16.40
2018-11-10T01:53:39.937Z,15.30
2018-11-10T01:54:39.864Z,15.70
2018-11-10T01:55:39.824Z,16.60
2018-11-10T01:56:39.779Z,15.60
2018-11-10T01:57:39.758Z,16.40
2018-11-10T01:58:39.730Z,15.80
2018-11-10T01:59:39.704Z,16.60
2018-11-10T02:00:39.619Z,15.90
2018-11-10T02:01:39.615Z,16.40
2018-11-10T02:02:39.596Z,16.40
2018-11-10T02:03:39.557Z,16.20
2018-11-10T02:04:39.468Z,16.00
2018-11-10T02:05:39.429Z,16.30
2018-11-10T02:06:39.380Z,16.20
2018-11-10T02:07:39.397Z,16.70
2018-11-10T02:08:39.303Z,16.30
2018-11-10T02:09:39.840Z,16.60
2018-11-10T02:10:39.229Z,16.70
2018-11-10T02:11:39.181Z,15.60
2018-11-10T02:12:39.146Z,16.10
2018-11-10T02:13:39.100Z,15.80
2018-11-10T02:14:39.094Z,15.70
2018-11-10T02:15:39.028Z,15.80
2018-11-10T02:16:38.987Z,16.00
2018-11-10T02:17:38.939Z,16.30
2018-11-10T02:18:38.890Z,15.80
2018-11-10T02:19:38.873Z,15.80
2018-11-10T02:20:38.842Z,15.00
2018-11-10T02:21:38.769Z,15.20
2018-11-10T02:22:38.786Z,16.10
2018-11-10T02:23:38.738Z,16.30
2018-11-10T02:24:38.716Z,14.90
2018-11-10T02:25:38.663Z,14.70
2018-11-10T02:26:38.629Z,14.20
2018-11-10T02:27:38.533Z,14.80
2018-11-10T02:28:38.497Z,14.70
2018-11-10T02:29:38.495Z,15.20
2018-11-10T02:30:38.443Z,14.80
2018-11-10T02:31:38.377Z,14.00
2018-11-10T02:32:38.382Z,14.30
2018-11-10T02:33:38.333Z,14.00
2018-11-10T02:34:38.296Z,14.20
2018-11-10T02:35:38.259Z,14.10
2018-11-10T02:36:38.211Z,14.40
2018-11-10T02:37:38.143Z,14.20
2018-11-10T02:38:38.191Z,14.50
2018-11-10T02:39:38.096Z,14.70
2018-11-10T02:40:38.025Z,13.50
2018-11-10T02:41:37.985Z,13.30
2018-11-10T02:42:37.935Z,13.40
2018-11-10T02:43:37.948Z,13.30
2018-11-10T02:44:37.900Z,14.60
2018-11-10T02:45:37.801Z,13.70
2018-11-10T02:46:37.747Z,12.80
2018-11-10T02:47:37.748Z,13.30
2018-11-10T02:48:37.687Z,13.20
2018-11-10T02:49:37.680Z,13.10
2018-11-10T02:50:37.631Z,13.70
2018-11-10T02:51:37.581Z,13.30
2018-11-10T02:52:37.563Z,13.70
2018-11-10T02:53:37.490Z,13.70
2018-11-10T02:54:37.476Z,14.00
2018-11-10T02:55:37.418Z,12.50
2018-11-10T02:56:37.399Z,13.60
2018-11-10T02:57:37.324Z,14.10
2018-11-10T02:58:37.318Z,12.50
2018-11-10T02:59:37.231Z,12.90
2018-11-10T03:00:37.222Z,12.40
2018-11-10T03:01:37.212Z,12.60
2018-11-10T03:02:37.124Z,12.20
2018-11-10T03:03:37.078Z,11.80
2018-11-10T03:04:37.044Z,12.10
2018-11-10T03:05:36.995Z,11.90
2018-11-10T03:06:36.991Z,11.90
2018-11-10T03:07:36.950Z,12.10
2018-11-10T03:08:36.905Z,11.70
2018-11-10T03:09:36.859Z,11.70
2018-11-10T03:10:36.852Z,11.30
2018-11-10T03:11:36.776Z,11.00
2018-11-10T03:12:36.778Z,12.00
2018-11-10T03:13:36.670Z,11.60
2018-11-10T03:14:36.638Z,10.90
2018-11-10T03:15:36.613Z,11.00
2018-11-10T03:16:36.574Z,11.30
2018-11-10T03:17:36.527Z,11.60
2018-11-10T03:18:36.495Z,11.30
2018-11-10T03:19:36.445Z,11.10
2018-11-10T03:20:36.434Z,10.70
2018-11-10T03:21:36.398Z,10.60
2018-11-10T03:22:36.352Z,10.70
2018-11-10T03:23:36.270Z,10.20
2018-11-10T03:24:36.269Z,10.20
2018-11-10T03:25:36.204Z,10.50
2018-11-10T03:26:36.157Z,10.50
2018-11-10T03:27:36.157Z,10.40
2018-11-10T03:28:36.075Z,9.90
2018-11-10T03:29:36.065Z,10.50
2018-11-10T03:30:35.996Z,10.10
2018-11-10T03:31:35.957Z,9.70
2018-11-10T03:32:35.917Z,10.10
2018-11-10T03:33:35.948Z,9.60
2018-11-10T03:34:35.867Z,9.90
2018-11-10T03:35:35.788Z,10.30
2018-11-10T03:36:35.775Z,10.40
2018-11-10T03:37:35.757Z,9.10
2018-11-10T03:38:35.721Z,9.20
2018-11-10T03:39:35.626Z,9.50
2018-11-10T03:40:35.583Z,9.20
2018-11-10T03:41:35.530Z,10.10
2018-11-10T03:42:35.502Z,8.70
2018-11-10T03:43:35.488Z,9.50
2018-11-10T03:44:35.456Z,9.40
2018-11-10T03:45:35.391Z,9.00
2018-11-10T03:46:35.369Z,8.50
2018-11-10T03:47:35.339Z,9.60
2018-11-10T03:48:35.333Z,9.30
2018-11-10T03:49:35.250Z,9.60
2018-11-10T03:50:35.189Z,8.60
2018-11-10T03:51:35.190Z,8.50
2018-11-10T03:52:35.118Z,8.40
2018-11-10T03:53:35.090Z,8.00
2018-11-10T03:54:35.037Z,7.80
2018-11-10T03:55:34.974Z,8.20
2018-11-10T03:56:34.949Z,8.50
2018-11-10T03:57:35.009Z,8.40
2018-11-10T03:58:34.864Z,8.80
2018-11-10T03:59:34.847Z,9.00
2018-11-10T04:00:34.808Z,7.60
2018-11-10T04:01:34.749Z,7.80
2018-11-10T04:02:34.708Z,7.80
2018-11-10T04:03:34.653Z,8.00
2018-11-10T04:04:34.667Z,7.80
2018-11-10T04:05:34.598Z,7.40
2018-11-10T04:06:34.541Z,7.30
2018-11-10T04:07:34.505Z,7.40
2018-11-10T04:08:34.451Z,7.70
2018-11-10T04:09:34.456Z,14.70
2018-11-10T04:10:34.421Z,7.30
2018-11-10T04:11:34.336Z,7.20
2018-11-10T04:12:34.323Z,7.40
2018-11-10T04:13:34.263Z,6.80
2018-11-10T04:14:34.209Z,7.00
2018-11-10T04:15:34.287Z,7.60
2018-11-10T04:16:34.142Z,6.80
2018-11-10T04:17:34.090Z,7.60
2018-11-10T04:18:34.058Z,6.40
2018-11-10T04:19:34.015Z,7.60
2018-11-10T04:20:34.004Z,6.50
2018-11-10T04:21:33.933Z,6.80
2018-11-10T04:22:33.897Z,6.90
2018-11-10T04:23:33.850Z,6.50
2018-11-10T04:24:33.829Z,6.30
2018-11-10T04:25:33.802Z,6.00
2018-11-10T04:26:33.751Z,6.50
2018-11-10T04:27:33.714Z,7.50
2018-11-10T04:28:33.640Z,6.70
2018-11-10T04:29:33.652Z,6.90
2018-11-10T04:30:33.580Z,6.50
2018-11-10T04:31:33.605Z,6.70
2018-11-10T04:32:33.505Z,6.20
2018-11-10T04:33:33.446Z,6.60
2018-11-10T04:34:33.437Z,6.40
2018-11-10T04:35:33.378Z,6.50
2018-11-10T04:36:33.343Z,6.60
2018-11-10T04:37:33.330Z,6.40
2018-11-10T04:38:33.263Z,7.80
2018-11-10T04:39:33.215Z,7.70
2018-11-10T04:40:33.177Z,7.70
2018-11-10T04:41:33.140Z,10.70
2018-11-10T04:42:33.104Z,6.90
2018-11-10T04:43:33.108Z,6.70
2018-11-10T04:44:33.027Z,7.10
2018-11-10T04:45:32.987Z,9.50
2018-11-10T04:46:32.920Z,7.90
2018-11-10T04:47:32.927Z,12.20
2018-11-10T04:48:32.885Z,7.30
2018-11-10T04:49:32.848Z,7.30
2018-11-10T04:50:32.798Z,9.00
2018-11-10T04:51:32.742Z,7.20
2018-11-10T04:52:32.712Z,6.60
2018-11-10T04:53:32.666Z,6.40
2018-11-10T04:54:32.643Z,7.10
2018-11-10T04:55:32.580Z,7.40
2018-11-10T04:56:32.548Z,7.00
2018-11-10T04:57:32.486Z,7.10
2018-11-10T04:58:32.450Z,6.70
2018-11-10T04:59:32.437Z,7.00
2018-11-10T05:00:32.377Z,6.50
2018-11-10T05:01:32.358Z,6.80
2018-11-10T05:02:32.294Z,7.20
2018-11-10T05:03:32.285Z,6.80
2018-11-10T05:04:32.218Z,9.00
2018-11-10T05:05:32.172Z,7.00
2018-11-10T05:06:32.135Z,7.50
2018-11-10T05:07:32.089Z,7.30
2018-11-10T05:08:32.075Z,8.90
2018-11-10T05:09:32.015Z,7.20
2018-11-10T05:10:31.974Z,7.10
2018-11-10T05:11:31.925Z,7.10
2018-11-10T05:12:31.894Z,9.20
2018-11-10T05:13:31.887Z,7.40
2018-11-10T05:14:31.814Z,8.90
2018-11-10T05:15:31.782Z,7.60
2018-11-10T05:16:31.736Z,7.30
2018-11-10T05:17:31.690Z,7.70
2018-11-10T05:18:31.685Z,7.60
2018-11-10T05:19:31.634Z,7.70
2018-11-10T05:20:31.581Z,8.00
2018-11-10T05:21:31.536Z,7.70
2018-11-10T05:22:31.530Z,8.10
2018-11-10T05:23:31.455Z,9.70
2018-11-10T05:24:31.454Z,8.60
2018-11-10T05:25:31.393Z,7.70
2018-11-10T05:26:31.321Z,7.70
2018-11-10T05:27:31.291Z,9.50
2018-11-10T05:28:31.257Z,8.70
2018-11-10T05:29:31.204Z,7.30
2018-11-10T05:30:31.194Z,8.20
2018-11-10T05:31:31.151Z,8.30
2018-11-10T05:32:31.084Z,8.40
2018-11-10T05:33:31.059Z,8.30
2018-11-10T05:34:31.045Z,8.90
2018-11-10T05:35:30.992Z,15.70
2018-11-10T05:36:30.938Z,8.90
2018-11-10T05:37:30.892Z,8.40
2018-11-10T05:38:30.862Z,9.10
2018-11-10T05:39:30.833Z,9.10
2018-11-10T05:40:30.765Z,10.70
2018-11-10T05:41:30.744Z,9.20
2018-11-10T05:42:30.693Z,10.00
2018-11-10T05:43:30.643Z,9.40
2018-11-10T05:44:30.629Z,10.00
2018-11-10T05:45:30.570Z,10.30
2018-11-10T05:46:30.521Z,11.00
2018-11-10T05:47:30.484Z,10.90
2018-11-10T05:48:30.450Z,12.00
2018-11-10T05:49:30.429Z,10.90
2018-11-10T05:50:30.358Z,10.60
2018-11-10T05:51:30.311Z,10.30
2018-11-10T05:52:30.266Z,11.20
2018-11-10T05:53:30.242Z,11.10
2018-11-10T05:54:30.275Z,11.70
2018-11-10T05:55:30.166Z,11.40
2018-11-10T05:56:30.119Z,11.30
2018-11-10T05:57:30.072Z,11.70
2018-11-10T05:58:30.044Z,11.50
2018-11-10T05:59:29.995Z,11.40
2018-11-10T06:00:29.981Z,11.70
2018-11-10T06:01:29.909Z,10.80
2018-11-10T06:02:29.865Z,11.10
2018-11-10T06:03:29.819Z,11.60
2018-11-10T06:04:29.791Z,11.80
2018-11-10T06:05:29.757Z,11.00
2018-11-10T06:06:29.742Z,11.40
2018-11-10T06:07:29.665Z,12.00
2018-11-10T06:08:29.627Z,11.50
2018-11-10T06:09:29.592Z,10.60
2018-11-10T06:10:29.667Z,11.90
2018-11-10T06:11:29.499Z,12.40
2018-11-10T06:12:29.487Z,11.50
2018-11-10T06:13:29.424Z,21.00
2018-11-10T06:14:29.375Z,10.60
2018-11-10T06:15:29.333Z,12.20
2018-11-10T06:16:29.315Z,11.20
2018-11-10T06:17:29.253Z,11.30
2018-11-10T06:18:29.224Z,12.00
2018-11-10T06:19:29.165Z,11.30
2018-11-10T06:20:29.126Z,10.80
2018-11-10T06:21:29.112Z,10.90
2018-11-10T06:22:29.056Z,11.40
2018-11-10T06:23:28.999Z,10.60
2018-11-10T06:24:28.959Z,11.10
2018-11-10T06:25:28.919Z,11.20
2018-11-10T06:26:28.878Z,10.50
2018-11-10T06:27:28.858Z,11.00
2018-11-10T06:28:28.802Z,12.20
2018-11-10T06:29:28.749Z,11.50
2018-11-10T06:30:28.704Z,12.00
2018-11-10T06:31:28.670Z,11.90
2018-11-10T06:32:28.701Z,12.30
2018-11-10T06:33:28.584Z,11.40
2018-11-10T06:34:28.543Z,11.80
2018-11-10T06:35:28.520Z,11.60
2018-11-10T06:36:28.463Z,11.40
2018-11-10T06:37:28.425Z,12.40
2018-11-10T06:38:28.376Z,11.60
2018-11-10T06:39:28.335Z,12.10
2018-11-10T06:40:28.324Z,12.10
2018-11-10T06:41:28.358Z,12.40
2018-11-10T06:42:28.210Z,11.40
2018-11-10T06:43:28.170Z,12.40
2018-11-10T06:44:28.128Z,13.20
2018-11-10T06:45:28.108Z,12.00
2018-11-10T06:46:28.075Z,12.40
2018-11-10T06:47:28.005Z,12.60
2018-11-10T06:48:27.969Z,12.60
2018-11-10T06:49:27.933Z,11.00
2018-11-10T06:50:27.880Z,12.70
2018-11-10T06:51:27.850Z,12.80
2018-11-10T06:52:27.822Z,12.30
2018-11-10T06:53:27.774Z,11.80
2018-11-10T06:54:27.712Z,11.10
2018-11-10T06:55:27.684Z,11.40
2018-11-10T06:56:27.639Z,12.00
2018-11-10T06:57:27.632Z,11.80
2018-11-10T06:58:27.564Z,12.30
2018-11-10T06:59:27.523Z,10.50
2018-11-10T07:00:27.469Z,11.60
2018-11-10T07:01:27.442Z,10.60
2018-11-10T07:02:27.389Z,11.10
2018-11-10T07:03:27.416Z,10.40
2018-11-10T07:04:27.318Z,11.50
2018-11-10T07:05:27.260Z,11.90
2018-11-10T07:06:27.218Z,11.20
2018-11-10T07:07:27.173Z,11.40
2018-11-10T07:08:27.137Z,11.60
2018-11-10T07:09:27.157Z,11.30
2018-11-10T07:10:27.058Z,12.70
2018-11-10T07:11:27.015Z,11.70
2018-11-10T07:12:26.977Z,12.50
2018-11-10T07:13:26.952Z,12.20
2018-11-10T07:14:26.892Z,12.10
2018-11-10T07:15:26.844Z,11.70
2018-11-10T07:16:26.837Z,12.90
2018-11-10T07:17:26.789Z,11.40
2018-11-10T07:18:26.731Z,13.00
2018-11-10T07:19:26.703Z,13.40
2018-11-10T07:20:26.643Z,13.50
2018-11-10T07:21:26.605Z,13.50
2018-11-10T07:22:26.560Z,12.70
2018-11-10T07:23:26.518Z,12.40
2018-11-10T07:24:26.498Z,12.60
2018-11-10T07:25:26.432Z,13.00
2018-11-10T07:26:26.389Z,11.80
2018-11-10T07:27:26.348Z,12.30
2018-11-10T07:28:26.305Z,13.00
2018-11-10T07:29:26.306Z,13.80
2018-11-10T07:30:26.229Z,11.40
2018-11-10T07:31:26.196Z,11.60
2018-11-10T07:32:26.148Z,11.40
2018-11-10T07:33:26.108Z,12.20
2018-11-10T07:34:26.114Z,11.90
2018-11-10T07:35:26.031Z,11.90
2018-11-10T07:36:25.991Z,11.50
2018-11-10T07:37:26.000Z,12.30
2018-11-10T07:38:25.913Z,11.90
2018-11-10T07:39:25.890Z,11.60
2018-11-10T07:40:25.844Z,11.70
2018-11-10T07:41:25.785Z,11.60
2018-11-10T07:42:25.742Z,11.20
2018-11-10T07:43:25.695Z,10.90
2018-11-10T07:44:25.675Z,10.90
2018-11-10T07:45:25.619Z,10.80
2018-11-10T07:46:25.576Z,11.10
2018-11-10T07:47:25.526Z,11.30
2018-11-10T07:48:25.508Z,10.70
2018-11-10T07:49:25.473Z,10.50
2018-11-10T07:50:25.433Z,9.80
2018-11-10T07:51:25.418Z,10.30
2018-11-10T07:52:25.332Z,9.70
2018-11-10T07:53:34.635Z,10.40
2018-11-10T07:54:25.266Z,9.70
2018-11-10T07:55:25.216Z,10.10
2018-11-10T07:56:25.150Z,9.50
2018-11-10T07:57:25.106Z,9.80
2018-11-10T07:58:25.068Z,9.50
2018-11-10T07:59:25.058Z,9.80
2018-11-10T08:00:25.014Z,9.80
2018-11-10T08:01:24.976Z,10.40
2018-11-10T08:02:24.930Z,9.20
2018-11-10T08:03:24.862Z,9.90
2018-11-10T08:04:24.844Z,9.10
2018-11-10T08:05:24.784Z,9.20
2018-11-10T08:06:24.771Z,8.70
2018-11-10T08:07:24.694Z,9.20
2018-11-10T08:08:24.677Z,13.70
2018-11-10T08:09:24.616Z,9.00
2018-11-10T08:10:24.572Z,9.00
2018-11-10T08:11:24.564Z,9.20
2018-11-10T08:12:24.500Z,7.90
2018-11-10T08:13:24.458Z,10.30
2018-11-10T08:14:24.419Z,7.70
2018-11-10T08:15:24.369Z,8.30
2018-11-10T08:16:24.349Z,8.90
2018-11-10T08:17:24.310Z,10.00
2018-11-10T08:18:24.254Z,8.50
2018-11-10T08:19:24.212Z,10.40
2018-11-10T08:20:24.172Z,8.20
2018-11-10T08:21:24.150Z,9.60
2018-11-10T08:22:24.081Z,8.20
2018-11-10T08:23:24.050Z,7.80
2018-11-10T08:24:24.006Z,7.50
2018-11-10T08:25:23.966Z,8.40
2018-11-10T08:26:23.977Z,7.30
2018-11-10T08:27:23.899Z,7.90
2018-11-10T08:28:23.838Z,7.50
2018-11-10T08:29:23.796Z,7.40
2018-11-10T08:30:23.752Z,6.90
2018-11-10T08:31:23.801Z,7.40
2018-11-10T08:32:23.707Z,7.90
2018-11-10T08:33:23.637Z,6.70
2018-11-10T08:34:23.601Z,7.20
2018-11-10T08:35:23.551Z,7.80
2018-11-10T08:36:23.512Z,7.90
2018-11-10T08:37:23.502Z,6.90
2018-11-10T08:38:23.439Z,7.30
2018-11-10T08:39:23.515Z,7.00
2018-11-10T08:40:23.345Z,6.80
2018-11-10T08:41:23.311Z,7.30
2018-11-10T08:42:23.264Z,6.90
2018-11-10T08:43:23.231Z,6.90
2018-11-10T08:44:23.193Z,7.20
2018-11-10T08:45:23.174Z,6.80
2018-11-10T08:46:23.111Z,7.30
2018-11-10T08:47:23.061Z,6.80
2018-11-10T08:48:23.049Z,6.20
2018-11-10T08:49:23.127Z,6.30
2018-11-10T08:50:22.967Z,6.60
2018-11-10T08:51:22.905Z,6.70
2018-11-10T08:52:22.870Z,7.20
2018-11-10T08:53:22.820Z,6.90
2018-11-10T08:54:22.800Z,6.20
2018-11-10T08:55:22.743Z,6.20
2018-11-10T08:56:22.705Z,6.30
2018-11-10T08:57:22.696Z,6.30
2018-11-10T08:58:22.649Z,5.90
2018-11-10T08:59:22.598Z,6.30
2018-11-10T09:00:22.536Z,7.40
2018-11-10T09:01:22.496Z,5.50
2018-11-10T09:02:22.455Z,5.60
2018-11-10T09:03:22.445Z,6.50
2018-11-10T09:04:22.407Z,5.90
2018-11-10T09:05:22.341Z,6.20
2018-11-10T09:06:22.299Z,6.30
2018-11-10T09:07:22.251Z,5.90
2018-11-10T09:08:22.211Z,5.60
2018-11-10T09:09:22.246Z,5.90
2018-11-10T09:10:22.138Z,7.00
2018-11-10T09:11:22.092Z,5.30
2018-11-10T09:12:22.050Z,6.60
2018-11-10T09:13:22.013Z,6.10
2018-11-10T09:14:21.990Z,5.80
2018-11-10T09:15:21.937Z,5.70
2018-11-10T09:16:21.898Z,6.00
2018-11-10T09:17:21.878Z,6.00
2018-11-10T09:18:21.812Z,5.60
2018-11-10T09:19:21.793Z,5.40
2018-11-10T09:20:21.751Z,5.40
2018-11-10T09:21:21.816Z,5.30
2018-11-10T09:22:21.667Z,5.90
2018-11-10T09:23:21.611Z,5.70
2018-11-10T09:24:21.573Z,5.70
2018-11-10T09:25:21.549Z,5.80
2018-11-10T09:26:21.481Z,7.80
2018-11-10T09:27:22.157Z,5.60
2018-11-10T09:28:21.411Z,5.50
2018-11-10T09:29:21.368Z,4.80
2018-11-10T09:30:21.353Z,5.00
2018-11-10T09:31:21.285Z,5.20
2018-11-10T09:32:21.243Z,6.00
2018-11-10T09:33:21.207Z,5.00
2018-11-10T09:34:21.160Z,5.20
2018-11-10T09:35:21.149Z,5.30
2018-11-10T09:36:21.092Z,6.70
2018-11-10T09:37:21.048Z,4.60
2018-11-10T09:38:21.006Z,4.90
2018-11-10T09:39:20.961Z,4.60
2018-11-10T09:40:20.948Z,4.90
2018-11-10T09:41:20.885Z,5.30
2018-11-10T09:42:20.960Z,5.40
2018-11-10T09:43:20.799Z,5.20
2018-11-10T09:44:20.755Z,5.30
2018-11-10T09:45:20.718Z,5.40
2018-11-10T09:46:20.700Z,4.90
2018-11-10T09:47:20.643Z,5.20
2018-11-10T09:48:20.604Z,5.00
2018-11-10T09:49:20.562Z,5.20
2018-11-10T09:50:20.524Z,6.30
2018-11-10T09:51:20.495Z,5.00
2018-11-10T09:52:20.435Z,5.10
2018-11-10T09:53:20.392Z,5.30
2018-11-10T09:54:20.355Z,5.50
2018-11-10T09:55:20.332Z,5.00
2018-11-10T09:56:20.301Z,5.20
2018-11-10T09:57:20.258Z,4.40
2018-11-10T09:58:20.193Z,6.40
2018-11-10T09:59:20.160Z,4.60
2018-11-10T10:00:20.120Z,5.10
2018-11-10T10:01:20.195Z,4.90
2018-11-10T10:02:20.454Z,4.50
2018-11-10T10:03:19.996Z,4.70
2018-11-10T10:04:19.951Z,4.80
2018-11-10T10:05:19.911Z,4.90
2018-11-10T10:06:19.894Z,4.50
2018-11-10T10:07:19.864Z,4.60
2018-11-10T10:08:19.797Z,4.90
2018-11-10T10:09:19.758Z,4.10
2018-11-10T10:10:19.717Z,4.90
2018-11-10T10:11:19.671Z,4.80
2018-11-10T10:12:19.630Z,4.70
2018-11-10T10:13:19.628Z,4.90
2018-11-10T10:14:19.557Z,4.70
2018-11-10T10:15:19.510Z,5.60
2018-11-10T10:16:19.685Z,4.90
2018-11-10T10:17:19.430Z,4.60
2018-11-10T10:18:19.434Z,4.20
2018-11-10T10:19:19.360Z,4.30
2018-11-10T10:20:19.317Z,4.40
2018-11-10T10:21:19.277Z,4.60
2018-11-10T10:22:19.238Z,4.30
2018-11-10T10:23:19.192Z,4.30
2018-11-10T10:24:19.174Z,5.10
2018-11-10T10:25:19.112Z,4.60
2018-11-10T10:26:19.073Z,4.80
2018-11-10T10:27:19.038Z,4.40
2018-11-10T10:28:19.100Z,5.10
2018-11-10T10:29:18.954Z,4.00
2018-11-10T10:30:18.912Z,6.40
2018-11-10T10:31:18.879Z,4.50
2018-11-10T10:32:18.843Z,4.60
2018-11-10T10:33:18.802Z,4.40
2018-11-10T10:34:18.818Z,4.70
2018-11-10T10:35:18.926Z,4.30
2018-11-10T10:36:18.674Z,4.60
2018-11-10T10:37:18.636Z,6.20
2018-11-10T10:38:18.594Z,5.20
2018-11-10T10:39:18.586Z,4.70
2018-11-10T10:40:18.524Z,4.50
2018-11-10T10:41:18.482Z,5.00
2018-11-10T10:42:18.444Z,5.40
2018-11-10T10:43:18.396Z,4.50
2018-11-10T10:44:18.381Z,4.90
2018-11-10T10:45:18.325Z,4.90
2018-11-10T10:46:18.283Z,4.80
2018-11-10T10:47:18.257Z,5.10
2018-11-10T10:48:18.197Z,5.10
2018-11-10T10:49:18.261Z,5.00
2018-11-10T10:50:18.162Z,5.20
2018-11-10T10:51:18.088Z,5.50
2018-11-10T10:52:18.044Z,6.40
2018-11-10T10:53:18.005Z,6.80
2018-11-10T10:54:17.965Z,5.80
2018-11-10T10:55:17.946Z,6.50
2018-11-10T10:56:17.931Z,6.30
2018-11-10T10:57:17.835Z,6.00
2018-11-10T10:58:17.795Z,6.40
2018-11-10T10:59:17.761Z,6.40
2018-11-10T11:00:17.747Z,6.40
2018-11-10T11:01:17.674Z,7.40
2018-11-10T11:02:17.633Z,6.50
2018-11-10T11:03:17.635Z,6.70
2018-11-10T11:04:17.569Z,6.50
2018-11-10T11:05:17.549Z,7.10
2018-11-10T11:06:17.487Z,7.20
2018-11-10T11:07:17.431Z,7.20
2018-11-10T11:08:17.393Z,7.10
2018-11-10T11:09:17.353Z,7.50
2018-11-10T11:10:17.310Z,7.40
2018-11-10T11:11:17.301Z,8.30
2018-11-10T11:12:17.236Z,7.80
2018-11-10T11:13:17.230Z,8.20
2018-11-10T11:14:17.159Z,8.00
2018-11-10T11:15:17.132Z,8.30
2018-11-10T11:16:17.068Z,8.90
2018-11-10T11:17:17.034Z,8.60
2018-11-10T11:18:16.995Z,8.40
2018-11-10T11:19:16.991Z,9.30
2018-11-10T11:20:16.907Z,8.90
2018-11-10T11:21:16.867Z,8.80
2018-11-10T11:22:16.849Z,9.20
2018-11-10T11:23:16.796Z,10.00
2018-11-10T11:24:16.780Z,9.30
2018-11-10T11:25:16.710Z,9.40
2018-11-10T11:26:16.670Z,8.60
2018-11-10T11:27:16.624Z,9.50
2018-11-10T11:28:16.581Z,9.10
2018-11-10T11:29:16.693Z,9.20
2018-11-10T11:30:16.504Z,10.30
2018-11-10T11:31:16.468Z,9.30
2018-11-10T11:32:16.456Z,9.60
2018-11-10T11:33:16.379Z,9.20
2018-11-10T11:34:16.340Z,9.80
2018-11-10T11:35:16.316Z,9.30
2018-11-10T11:36:16.267Z,8.70
2018-11-10T11:37:25.235Z,9.40
2018-11-10T11:38:16.180Z,9.80
2018-11-10T11:39:16.152Z,9.80
2018-11-10T11:40:16.098Z,10.10
2018-11-10T11:41:16.129Z,10.90
2018-11-10T11:42:16.021Z,10.40
2018-11-10T11:43:24.778Z,10.40
2018-11-10T11:44:15.945Z,10.00
2018-11-10T11:45:15.908Z,10.10
2018-11-10T11:46:15.863Z,10.90
2018-11-10T11:47:15.831Z,11.50
2018-11-10T11:48:15.807Z,11.10
2018-11-10T11:49:15.738Z,11.30
2018-11-10T11:50:15.694Z,11.60
2018-11-10T11:51:15.666Z,11.50
2018-11-10T11:52:15.616Z,11.70
2018-11-10T11:53:15.579Z,11.40
2018-11-10T11:54:15.570Z,12.80
2018-11-10T11:55:15.490Z,12.60
2018-11-10T11:56:15.449Z,13.20
2018-11-10T11:57:15.407Z,12.60
2018-11-10T11:58:15.428Z,12.80
2018-11-10T11:59:15.367Z,13.80
2018-11-10T12:00:15.298Z,13.80
2018-11-10T12:01:15.247Z,13.90
2018-11-10T12:02:15.264Z,13.40
2018-11-10T12:03:15.171Z,13.00
2018-11-10T12:04:15.182Z,14.60
2018-11-10T12:05:15.088Z,12.60
2018-11-10T12:06:15.051Z,14.30
2018-11-10T12:07:15.001Z,12.90
2018-11-10T12:08:14.957Z,15.50
2018-11-10T12:09:14.949Z,15.30
2018-11-10T12:10:14.883Z,14.70
2018-11-10T12:11:14.847Z,13.00
2018-11-10T12:12:14.808Z,14.60
2018-11-10T12:13:14.773Z,13.50
2018-11-10T12:14:14.748Z,14.90
2018-11-10T12:15:14.690Z,13.70
2018-11-10T12:16:14.640Z,13.50
2018-11-10T12:17:14.603Z,12.30
2018-11-10T12:18:14.566Z,14.60
2018-11-10T12:19:14.552Z,14.40
2018-11-10T12:20:14.475Z,14.40
2018-11-10T12:21:14.433Z,13.60
2018-11-10T12:22:14.438Z,14.50
2018-11-10T12:23:14.353Z,13.60
2018-11-10T12:24:14.361Z,14.10
2018-11-10T12:25:14.265Z,13.20
2018-11-10T12:26:14.225Z,14.70
2018-11-10T12:27:14.195Z,14.50
2018-11-10T12:28:14.156Z,16.60
2018-11-10T12:29:14.113Z,13.70
2018-11-10T12:30:14.110Z,13.60
2018-11-10T12:31:14.040Z,14.30
2018-11-10T12:32:13.986Z,13.90
2018-11-10T12:33:13.949Z,14.10
2018-11-10T12:34:13.912Z,13.80
2018-11-10T12:35:13.883Z,13.80
2018-11-10T12:36:13.852Z,13.20
2018-11-10T12:37:13.779Z,13.40
2018-11-10T12:38:13.740Z,13.90
2018-11-10T12:39:13.705Z,12.70
2018-11-10T12:40:13.667Z,12.20
2018-11-10T12:41:13.628Z,12.60
2018-11-10T12:42:13.608Z,13.00
2018-11-10T12:43:13.539Z,14.70
2018-11-10T12:44:13.504Z,11.70
2018-11-10T12:45:13.458Z,12.30
2018-11-10T12:46:13.415Z,13.20
2018-11-10T12:47:13.405Z,13.50
2018-11-10T12:48:13.341Z,15.50
2018-11-10T12:49:13.350Z,14.30
2018-11-10T12:50:13.277Z,13.20
2018-11-10T12:51:13.213Z,12.80
2018-11-10T12:52:13.200Z,12.90
2018-11-10T12:53:13.132Z,14.70
2018-11-10T12:54:13.097Z,13.00
2018-11-10T12:55:13.116Z,13.70
2018-11-10T12:56:13.007Z,12.50
2018-11-10T12:57:12.986Z,12.60
2018-11-10T12:58:12.924Z,12.30
2018-11-10T12:59:12.941Z,15.50
2018-11-10T13:00:12.858Z,13.40
2018-11-10T13:01:12.816Z,12.00
2018-11-10T13:02:12.780Z,12.80
2018-11-10T13:03:12.768Z,11.30